createdAt,value
2023-05-10T00:00:41.939Z,50.47
2023-05-10T00:03:09.720Z,50.60
2023-05-10T00:05:36.897Z,52.68
2023-05-10T00:08:04.229Z,51.81
2023-05-10T00:10:31.661Z,51.57
2023-05-10T00:12:58.815Z,50.07
2023-05-10T00:15:26.007Z,50.17
2023-05-10T00:17:53.498Z,51.23
2023-05-10T00:20:20.697Z,50.57
2023-05-10T00:22:47.857Z,47.25
2023-05-10T00:25:15.374Z,48.22
2023-05-10T00:27:42.581Z,50.12
2023-05-10T00:30:09.895Z,49.97
2023-05-10T00:32:37.392Z,49.02
2023-05-10T00:35:05.444Z,48.95
2023-05-10T00:37:33.026Z,50.39
2023-05-10T00:40:00.543Z,50.33
2023-05-10T00:42:27.748Z,49.95
2023-05-10T00:44:55.127Z,52.08
2023-05-10T00:47:22.944Z,53.02
2023-05-10T00:49:50.145Z,52.55
2023-05-10T00:52:17.298Z,53.21
2023-05-10T00:54:44.722Z,52.68
2023-05-10T00:57:11.947Z,52.40
2023-05-10T00:59:39.065Z,52.15
2023-05-10T01:02:06.557Z,51.79
2023-05-10T01:04:33.775Z,53.59
2023-05-10T01:07:00.982Z,53.89
2023-05-10T01:09:28.766Z,53.31
2023-05-10T01:11:56.450Z,52.39
2023-05-10T01:14:24.120Z,51.84
2023-05-10T01:16:51.934Z,51.68
2023-05-10T01:19:30.580Z,50.79
2023-05-10T01:22:14.058Z,48.14
2023-05-10T01:25:00.209Z,48.48
2023-05-10T01:27:34.764Z,48.90
2023-05-10T01:30:14.216Z,50.25
2023-05-10T01:32:43.355Z,50.20
2023-05-10T01:35:18.507Z,49.25
2023-05-10T01:37:49.447Z,49.39
2023-05-10T01:40:53.898Z,50.21
2023-05-10T01:43:25.730Z,49.66
2023-05-10T01:46:17.671Z,50.30
2023-05-10T01:48:49.245Z,49.82
2023-05-10T01:51:18.488Z,49.03
2023-05-10T01:53:47.456Z,49.98
2023-05-10T01:56:15.484Z,50.29
2023-05-10T01:58:46.588Z,50.85
2023-05-10T02:01:14.694Z,50.00
2023-05-10T02:03:44.048Z,51.16
2023-05-10T02:06:13.983Z,51.04
2023-05-10T02:08:42.277Z,51.02
2023-05-10T02:11:10.158Z,51.95
2023-05-10T02:13:40.393Z,51.62
2023-05-10T02:16:08.881Z,50.74
2023-05-10T02:18:37.711Z,51.56
2023-05-10T02:21:05.530Z,51.13
2023-05-10T02:23:33.125Z,49.77
2023-05-10T02:26:03.858Z,50.82
2023-05-10T02:28:32.205Z,51.58
2023-05-10T02:30:59.851Z,51.25
2023-05-10T02:33:28.628Z,51.91
2023-05-10T02:35:56.640Z,53.21
2023-05-10T02:38:24.369Z,54.33
2023-05-10T02:40:52.534Z,54.17
2023-05-10T02:43:20.116Z,53.83
2023-05-10T02:45:48.485Z,53.46
2023-05-10T02:48:17.063Z,53.42
2023-05-10T02:50:45.995Z,53.74
2023-05-10T02:53:17.541Z,53.27
2023-05-10T02:55:47.550Z,52.46
2023-05-10T02:58:15.037Z,52.45
2023-05-10T03:00:42.535Z,52.71
2023-05-10T03:03:10.211Z,53.33
2023-05-10T03:05:38.381Z,54.58
2023-05-10T03:08:06.109Z,55.06
2023-05-10T03:10:35.088Z,55.14
2023-05-10T03:13:14.207Z,54.11
2023-05-10T03:16:24.115Z,56.11
2023-05-10T03:19:08.391Z,58.36
2023-05-10T03:21:39.143Z,57.05
2023-05-10T03:24:09.333Z,57.38
2023-05-10T03:26:38.362Z,57.09
2023-05-10T03:29:07.476Z,55.20
2023-05-10T03:31:35.011Z,56.30
2023-05-10T03:34:02.753Z,56.43
2023-05-10T03:36:30.192Z,55.94
2023-05-10T03:38:57.684Z,56.34
2023-05-10T03:41:26.396Z,56.88
2023-05-10T03:43:54.089Z,58.60
2023-05-10T03:46:21.821Z,56.79
2023-05-10T03:48:49.846Z,57.09
2023-05-10T03:51:17.094Z,56.14
2023-05-10T03:53:44.453Z,55.40
2023-05-10T03:56:12.077Z,56.23
2023-05-10T03:58:39.429Z,56.15
2023-05-10T04:01:06.603Z,55.68
2023-05-10T04:03:34.305Z,55.05
2023-05-10T04:06:02.277Z,54.25
2023-05-10T04:08:30.035Z,56.34
2023-05-10T04:11:09.729Z,55.45
2023-05-10T04:13:36.920Z,55.28
2023-05-10T04:16:04.521Z,55.00
2023-05-10T04:18:32.141Z,55.47
2023-05-10T04:20:59.353Z,54.30
2023-05-10T04:23:28.013Z,53.93
2023-05-10T04:26:00.270Z,54.93
2023-05-10T04:28:28.256Z,54.87
2023-05-10T04:31:01.572Z,54.82
2023-05-10T04:33:29.018Z,53.87
2023-05-10T04:35:57.205Z,54.11
2023-05-10T04:38:24.369Z,53.83
2023-05-10T04:40:51.860Z,52.95
2023-05-10T04:43:19.055Z,52.25
2023-05-10T04:45:46.243Z,50.19
2023-05-10T04:48:14.063Z,50.84
2023-05-10T04:50:41.430Z,51.88
2023-05-10T04:53:08.814Z,49.29
2023-05-10T04:55:36.605Z,51.81
2023-05-10T04:58:03.995Z,49.29
2023-05-10T05:00:31.386Z,52.31
2023-05-10T05:02:59.102Z,50.32
2023-05-10T05:05:26.374Z,48.97
2023-05-10T05:07:53.584Z,52.11
2023-05-10T05:10:21.269Z,50.65
2023-05-10T05:12:48.616Z,49.53
2023-05-10T05:15:17.634Z,52.46
2023-05-10T05:17:45.059Z,51.17
2023-05-10T05:20:12.512Z,51.05
2023-05-10T05:22:39.823Z,49.42
2023-05-10T05:25:07.486Z,46.94
2023-05-10T05:27:34.601Z,47.01
2023-05-10T05:30:01.923Z,50.36
2023-05-10T05:32:29.750Z,52.76
2023-05-10T05:34:56.892Z,52.37
2023-05-10T05:37:25.406Z,55.12
2023-05-10T05:39:52.954Z,55.61
2023-05-10T05:42:20.428Z,54.38
2023-05-10T05:44:47.880Z,54.72
2023-05-10T05:47:15.591Z,51.46
2023-05-10T05:49:42.961Z,52.53
2023-05-10T05:52:10.338Z,54.93
2023-05-10T05:54:37.994Z,55.03
2023-05-10T05:57:05.462Z,56.23
2023-05-10T05:59:32.977Z,55.44
2023-05-10T06:02:01.671Z,51.77
2023-05-10T06:04:29.654Z,51.49
2023-05-10T06:06:57.194Z,52.93
2023-05-10T06:09:25.558Z,51.84
2023-05-10T06:11:53.273Z,53.17
2023-05-10T06:14:23.588Z,48.18
2023-05-10T06:16:51.119Z,48.06
2023-05-10T06:19:18.958Z,49.56
2023-05-10T06:21:46.347Z,49.79
2023-05-10T06:24:13.769Z,47.50
2023-05-10T06:26:41.426Z,45.91
2023-05-10T06:29:08.786Z,47.65
2023-05-10T06:31:36.281Z,46.80
2023-05-10T06:34:04.028Z,45.12
2023-05-10T06:36:31.761Z,47.03
2023-05-10T06:38:59.157Z,46.54
2023-05-10T06:41:26.779Z,47.75
2023-05-10T06:43:54.227Z,45.97
2023-05-10T06:46:21.682Z,47.72
2023-05-10T06:48:49.373Z,47.83
2023-05-10T06:51:16.781Z,45.68
2023-05-10T06:53:46.260Z,44.28
2023-05-10T06:56:13.901Z,44.24
2023-05-10T06:58:41.278Z,45.54
2023-05-10T07:01:09.339Z,48.45
2023-05-10T07:03:37.309Z,45.95
2023-05-10T07:06:06.467Z,45.70
2023-05-10T07:08:36.594Z,44.91
2023-05-10T07:11:05.559Z,44.79
2023-05-10T07:13:33.026Z,45.15
2023-05-10T07:16:03.029Z,42.93
2023-05-10T07:18:30.708Z,43.66
2023-05-10T07:20:58.791Z,43.20
2023-05-10T07:23:26.238Z,44.74
2023-05-10T07:25:54.454Z,42.00
2023-05-10T07:28:21.822Z,41.15
2023-05-10T07:30:49.317Z,39.46
2023-05-10T07:33:17.434Z,38.90
2023-05-10T07:35:44.929Z,36.89
2023-05-10T07:38:12.334Z,35.15
2023-05-10T07:40:40.549Z,34.96
2023-05-10T07:43:08.062Z,33.40
2023-05-10T07:45:35.582Z,33.78
2023-05-10T07:48:03.532Z,30.53
2023-05-10T07:50:30.959Z,31.14
2023-05-10T07:52:58.489Z,29.75
2023-05-10T07:55:26.166Z,29.65
2023-05-10T07:57:53.640Z,30.95
2023-05-10T08:00:21.526Z,31.40
2023-05-10T08:02:49.425Z,30.73
2023-05-10T08:05:17.136Z,30.65
2023-05-10T08:07:44.782Z,29.93
2023-05-10T08:10:13.649Z,27.72
2023-05-10T08:12:41.216Z,28.14
2023-05-10T08:15:09.467Z,29.64
2023-05-10T08:17:37.294Z,29.01
2023-05-10T08:20:05.210Z,29.65
2023-05-10T08:22:32.836Z,29.63
2023-05-10T08:25:01.064Z,28.17
2023-05-10T08:27:28.682Z,31.35
2023-05-10T08:29:56.101Z,29.52
2023-05-10T08:32:23.756Z,31.31
2023-05-10T08:34:51.002Z,32.81
2023-05-10T08:37:18.301Z,31.97
2023-05-10T08:39:48.902Z,30.59
2023-05-10T08:42:17.329Z,30.88
2023-05-10T08:44:44.523Z,30.91
2023-05-10T08:47:12.327Z,28.80
2023-05-10T08:49:39.752Z,29.38
2023-05-10T08:52:08.286Z,29.02
2023-05-10T08:54:36.100Z,28.49
2023-05-10T08:57:03.572Z,29.71
2023-05-10T08:59:30.763Z,30.30
2023-05-10T09:01:58.853Z,32.15
2023-05-10T09:04:26.497Z,30.24
2023-05-10T09:06:54.815Z,31.31
2023-05-10T09:09:22.706Z,28.06
2023-05-10T09:11:49.918Z,30.68
2023-05-10T09:14:17.256Z,33.13
2023-05-10T09:16:44.747Z,32.70
2023-05-10T09:19:12.032Z,30.93
2023-05-10T09:21:39.382Z,30.07
2023-05-10T09:24:07.379Z,32.47
2023-05-10T09:26:36.331Z,33.74
2023-05-10T09:29:04.024Z,31.60
2023-05-10T09:31:48.617Z,31.42
2023-05-10T09:34:24.088Z,32.14
2023-05-10T09:36:52.361Z,33.69
2023-05-10T09:39:19.660Z,33.97
2023-05-10T09:41:46.952Z,33.85
2023-05-10T09:44:18.769Z,33.32
2023-05-10T09:46:49.664Z,34.34
2023-05-10T09:49:17.078Z,34.19
2023-05-10T09:51:44.209Z,33.53
2023-05-10T09:54:12.025Z,31.84
2023-05-10T09:56:41.429Z,30.56
2023-05-10T09:59:10.354Z,31.36
2023-05-10T10:01:37.895Z,30.38
2023-05-10T10:04:05.993Z,29.14
2023-05-10T10:06:39.820Z,30.31
2023-05-10T10:09:07.733Z,30.71
2023-05-10T10:11:38.427Z,31.50
2023-05-10T10:14:05.970Z,29.17
2023-05-10T10:16:33.597Z,30.93
2023-05-10T10:19:01.010Z,28.77
2023-05-10T10:21:29.063Z,29.45
2023-05-10T10:23:57.015Z,29.76
2023-05-10T10:26:24.265Z,29.25
2023-05-10T10:28:53.291Z,28.87
2023-05-10T10:31:29.540Z,29.53
2023-05-10T10:33:58.162Z,29.37
2023-05-10T10:36:28.159Z,28.53
2023-05-10T10:39:00.250Z,29.90
2023-05-10T10:41:31.843Z,28.87
2023-05-10T10:44:18.106Z,29.62
2023-05-10T10:47:04.735Z,29.50
2023-05-10T10:49:33.588Z,30.36
2023-05-10T10:52:19.988Z,29.13
2023-05-10T10:55:07.726Z,29.23
2023-05-10T10:58:01.914Z,27.99
2023-05-10T11:00:33.222Z,28.82
2023-05-10T11:03:22.098Z,27.97
2023-05-10T11:05:49.889Z,29.31
2023-05-10T11:08:22.799Z,28.95
2023-05-10T11:10:53.800Z,29.74
2023-05-10T11:13:34.448Z,29.21
2023-05-10T11:16:15.046Z,29.56
2023-05-10T11:18:53.069Z,30.78
2023-05-10T11:21:20.440Z,28.45
2023-05-10T11:23:49.375Z,27.88
2023-05-10T11:26:16.713Z,27.27
2023-05-10T11:28:44.239Z,28.62
2023-05-10T11:31:13.547Z,28.57
2023-05-10T11:33:44.945Z,30.01
2023-05-10T11:36:16.990Z,29.67
2023-05-10T11:38:44.299Z,30.94
2023-05-10T11:41:12.578Z,30.40
2023-05-10T11:43:40.632Z,28.76
2023-05-10T11:46:08.418Z,29.21
2023-05-10T11:48:35.795Z,28.81
2023-05-10T11:51:03.613Z,29.28
2023-05-10T11:53:32.040Z,28.39
2023-05-10T11:56:06.460Z,30.04
2023-05-10T11:58:34.109Z,29.28
2023-05-10T12:01:01.317Z,27.96
2023-05-10T12:03:30.413Z,28.18
2023-05-10T12:05:57.889Z,28.77
2023-05-10T12:08:28.454Z,28.20
2023-05-10T12:11:04.979Z,28.67
2023-05-10T12:13:32.303Z,29.81
2023-05-10T12:15:59.853Z,28.78
2023-05-10T12:18:27.177Z,27.55
2023-05-10T12:20:57.259Z,28.51
2023-05-10T12:23:24.763Z,29.05
2023-05-10T12:25:54.968Z,27.17
2023-05-10T12:28:22.141Z,27.95
2023-05-10T12:30:49.518Z,28.99
2023-05-10T12:33:17.622Z,28.79
2023-05-10T12:35:45.662Z,28.67
2023-05-10T12:38:30.385Z,29.34
2023-05-10T12:40:58.230Z,28.12
2023-05-10T12:43:25.928Z,27.69
2023-05-10T12:45:53.409Z,27.52
2023-05-10T12:48:20.645Z,28.29
2023-05-10T12:50:48.464Z,29.32
2023-05-10T12:53:16.593Z,29.84
2023-05-10T12:55:44.132Z,29.91
2023-05-10T12:58:15.825Z,29.09
2023-05-10T13:00:48.245Z,28.93
2023-05-10T13:03:16.774Z,29.54
2023-05-10T13:05:44.049Z,30.14
2023-05-10T13:08:11.486Z,30.17
2023-05-10T13:10:38.986Z,30.83
2023-05-10T13:13:06.343Z,30.21
2023-05-10T13:15:33.496Z,30.02
2023-05-10T13:18:01.245Z,29.13
2023-05-10T13:20:28.729Z,29.08
2023-05-10T13:22:55.962Z,28.05
2023-05-10T13:25:23.475Z,28.30
2023-05-10T13:27:50.575Z,29.17
2023-05-10T13:30:17.927Z,29.23
2023-05-10T13:32:46.668Z,28.03
2023-05-10T13:35:13.884Z,29.22
2023-05-10T13:37:41.086Z,29.97
2023-05-10T13:40:08.780Z,29.06
2023-05-10T13:42:36.136Z,29.42
2023-05-10T13:45:03.264Z,28.29
2023-05-10T13:47:33.051Z,27.14
2023-05-10T13:50:00.238Z,27.38
2023-05-10T13:52:27.443Z,27.06
2023-05-10T13:54:56.249Z,26.62
2023-05-10T13:57:24.121Z,26.61
2023-05-10T13:59:51.475Z,27.37
2023-05-10T14:02:18.844Z,27.54
2023-05-10T14:04:46.428Z,27.33
2023-05-10T14:07:13.514Z,28.88
2023-05-10T14:09:40.674Z,28.08
2023-05-10T14:12:08.061Z,27.00
2023-05-10T14:14:35.637Z,27.17
2023-05-10T14:17:02.723Z,26.21
2023-05-10T14:19:33.393Z,26.63
2023-05-10T14:22:00.710Z,25.37
2023-05-10T14:24:27.820Z,24.99
2023-05-10T14:26:55.200Z,26.09
2023-05-10T14:29:23.004Z,26.31
2023-05-10T14:31:50.640Z,24.26
2023-05-10T14:34:18.170Z,24.18
2023-05-10T14:36:45.292Z,23.70
2023-05-10T14:39:14.326Z,24.16
2023-05-10T14:41:45.571Z,23.14
2023-05-10T14:44:12.772Z,22.85
2023-05-10T14:46:40.557Z,22.27
2023-05-10T14:49:08.082Z,22.42
2023-05-10T14:51:35.269Z,23.73
2023-05-10T14:54:03.370Z,25.43
2023-05-10T14:56:30.771Z,23.68
2023-05-10T14:58:57.921Z,24.54
2023-05-10T15:01:25.718Z,24.05
2023-05-10T15:03:53.821Z,22.94
2023-05-10T15:06:24.816Z,23.81
2023-05-10T15:08:52.572Z,24.83
2023-05-10T15:11:19.971Z,25.27
2023-05-10T15:13:47.050Z,26.42
2023-05-10T15:16:14.216Z,25.11
2023-05-10T15:18:41.695Z,25.50
2023-05-10T15:21:08.807Z,26.14
2023-05-10T15:23:35.940Z,25.74
2023-05-10T15:26:03.802Z,25.49
2023-05-10T15:28:32.422Z,25.23
2023-05-10T15:31:01.257Z,24.46
2023-05-10T15:33:28.721Z,25.87
2023-05-10T15:35:55.962Z,25.22
2023-05-10T15:38:23.553Z,26.63
2023-05-10T15:40:50.968Z,27.33
2023-05-10T15:43:18.352Z,26.99
2023-05-10T15:45:45.431Z,26.51
2023-05-10T15:48:12.820Z,27.40
2023-05-10T15:50:41.199Z,26.09
2023-05-10T15:53:08.372Z,27.14
2023-05-10T15:55:35.799Z,27.41
2023-05-10T15:58:03.129Z,26.55
2023-05-10T16:00:30.738Z,26.77
2023-05-10T16:02:58.038Z,26.28
2023-05-10T16:05:27.499Z,26.59
2023-05-10T16:07:55.211Z,26.85
2023-05-10T16:10:22.395Z,26.54
2023-05-10T16:12:49.889Z,26.24
2023-05-10T16:15:17.699Z,27.05
2023-05-10T16:17:45.104Z,27.67
2023-05-10T16:20:12.662Z,27.77
2023-05-10T16:22:39.851Z,28.65
2023-05-10T16:25:07.433Z,27.27
2023-05-10T16:27:35.158Z,28.22
2023-05-10T16:30:03.185Z,28.41
2023-05-10T16:32:31.624Z,27.72
2023-05-10T16:34:59.094Z,28.14
2023-05-10T16:37:26.679Z,28.22
2023-05-10T16:39:53.977Z,28.71
2023-05-10T16:42:21.695Z,26.86
2023-05-10T16:44:48.877Z,27.62
2023-05-10T16:47:16.107Z,27.93
2023-05-10T16:49:43.533Z,27.32
2023-05-10T16:52:11.375Z,27.83
2023-05-10T16:54:38.563Z,28.09
2023-05-10T16:57:06.368Z,27.16
2023-05-10T16:59:33.933Z,26.57
2023-05-10T17:02:01.160Z,27.00
2023-05-10T17:04:28.703Z,27.57
2023-05-10T17:06:55.861Z,27.19
2023-05-10T17:09:23.282Z,27.49
2023-05-10T17:11:50.738Z,27.56
2023-05-10T17:14:17.876Z,27.46
2023-05-10T17:16:45.084Z,27.54
2023-05-10T17:19:12.636Z,28.52
2023-05-10T17:21:39.830Z,28.18
2023-05-10T17:24:07.035Z,28.97
2023-05-10T17:26:34.665Z,30.84
2023-05-10T17:29:01.850Z,30.21
2023-05-10T17:31:29.891Z,30.77
2023-05-10T17:33:57.357Z,31.44
2023-05-10T17:36:24.692Z,32.47
2023-05-10T17:38:52.446Z,31.13
2023-05-10T17:41:20.427Z,31.53
2023-05-10T17:43:47.595Z,32.07
2023-05-10T17:46:14.923Z,31.44
2023-05-10T17:48:42.657Z,31.42
2023-05-10T17:51:11.306Z,31.30
2023-05-10T17:53:41.736Z,31.58
2023-05-10T17:56:09.674Z,31.94
2023-05-10T17:58:38.403Z,31.86
2023-05-10T18:01:05.892Z,31.61
2023-05-10T18:03:35.417Z,31.60
2023-05-10T18:06:03.353Z,31.71
2023-05-10T18:08:30.638Z,32.41
2023-05-10T18:10:58.107Z,32.55
2023-05-10T18:13:25.667Z,31.98
2023-05-10T18:15:53.244Z,33.46
2023-05-10T18:18:20.695Z,33.29
2023-05-10T18:20:47.975Z,34.34
2023-05-10T18:23:15.404Z,33.16
2023-05-10T18:25:42.916Z,34.13
2023-05-10T18:28:10.150Z,34.35
2023-05-10T18:30:37.339Z,33.75
2023-05-10T18:33:04.901Z,33.44
2023-05-10T18:35:32.095Z,32.68
2023-05-10T18:37:59.650Z,33.01
2023-05-10T18:40:27.957Z,32.69
2023-05-10T18:42:55.416Z,31.77
2023-05-10T18:45:22.761Z,32.78
2023-05-10T18:47:50.241Z,33.53
2023-05-10T18:50:17.712Z,33.50
2023-05-10T18:52:45.557Z,32.77
2023-05-10T18:55:13.001Z,32.76
2023-05-10T18:57:42.923Z,33.01
2023-05-10T19:00:11.043Z,33.13
2023-05-10T19:02:39.157Z,32.74
2023-05-10T19:05:06.958Z,32.79
2023-05-10T19:07:36.260Z,33.31
2023-05-10T19:10:04.440Z,32.73
2023-05-10T19:12:32.825Z,32.89
2023-05-10T19:15:00.518Z,32.92
2023-05-10T19:17:30.751Z,32.89
2023-05-10T19:19:59.564Z,32.33
2023-05-10T19:25:00.219Z,32.97
2023-05-10T19:27:27.388Z,33.03
2023-05-10T19:29:54.640Z,32.14
2023-05-10T19:32:25.608Z,32.23
2023-05-10T19:34:54.271Z,33.17
2023-05-10T19:37:26.342Z,33.01
2023-05-10T19:39:54.100Z,33.00
2023-05-10T19:42:24.806Z,32.83
2023-05-10T19:44:52.088Z,33.10
2023-05-10T19:47:19.253Z,32.91
2023-05-10T19:49:46.855Z,32.83
2023-05-10T19:52:14.343Z,32.50
2023-05-10T19:54:41.678Z,32.44
2023-05-10T19:57:11.312Z,31.88
2023-05-10T19:59:40.116Z,32.30
2023-05-10T20:02:07.654Z,32.33
2023-05-10T20:04:35.492Z,32.69
2023-05-10T20:07:02.830Z,33.04
2023-05-10T20:09:30.125Z,33.00
2023-05-10T20:11:57.553Z,32.76
2023-05-10T20:14:25.339Z,32.88
2023-05-10T20:16:52.849Z,32.89
2023-05-10T20:19:21.055Z,32.59
2023-05-10T20:21:48.821Z,32.36
2023-05-10T20:24:16.387Z,32.50
2023-05-10T20:26:44.935Z,32.80
2023-05-10T20:29:13.206Z,33.59
2023-05-10T20:31:40.519Z,33.08
2023-05-10T20:34:08.001Z,32.99
2023-05-10T20:36:35.112Z,32.90
2023-05-10T20:39:02.249Z,33.12
2023-05-10T20:41:30.121Z,33.69
2023-05-10T20:44:00.678Z,33.32
2023-05-10T20:46:31.506Z,33.33
2023-05-10T20:48:59.534Z,33.04
2023-05-10T20:51:27.080Z,33.07
2023-05-10T20:53:54.180Z,33.24
2023-05-10T20:56:21.832Z,33.78
2023-05-10T20:58:48.968Z,33.11
2023-05-10T21:01:16.230Z,33.22
2023-05-10T21:03:43.661Z,33.65
2023-05-10T21:06:10.783Z,33.70
2023-05-10T21:08:37.969Z,33.97
2023-05-10T21:11:05.771Z,33.89
2023-05-10T21:13:33.032Z,33.90
2023-05-10T21:16:00.465Z,33.70
2023-05-10T21:18:28.278Z,33.70
2023-05-10T21:20:55.676Z,34.32
2023-05-10T21:23:22.866Z,33.87
2023-05-10T21:25:50.274Z,34.26
2023-05-10T21:28:17.600Z,35.02
2023-05-10T21:30:44.743Z,34.02
2023-05-10T21:33:12.964Z,33.63
2023-05-10T21:35:42.893Z,33.68
2023-05-10T21:38:10.477Z,34.55
2023-05-10T21:40:38.332Z,34.61
2023-05-10T21:43:06.420Z,33.83
2023-05-10T21:45:33.908Z,33.91
2023-05-10T21:48:01.735Z,33.35
2023-05-10T21:50:29.073Z,34.04
2023-05-10T21:52:56.638Z,34.43
2023-05-10T21:55:24.164Z,34.81
2023-05-10T21:57:51.307Z,33.86
2023-05-10T22:00:19.720Z,33.97
2023-05-10T22:02:47.562Z,34.60
2023-05-10T22:05:14.866Z,36.12
2023-05-10T22:07:42.054Z,35.53
2023-05-10T22:10:09.749Z,35.78
2023-05-10T22:12:36.908Z,35.08
2023-05-10T22:17:34.714Z,35.07
2023-05-10T22:20:01.857Z,34.79
2023-05-10T22:22:29.059Z,35.32
2023-05-10T22:24:56.521Z,35.97
2023-05-10T22:27:23.669Z,36.59
2023-05-10T22:29:50.992Z,36.92
2023-05-10T22:32:18.521Z,35.11
2023-05-10T22:34:45.646Z,35.15
2023-05-10T22:37:14.885Z,34.43
2023-05-10T22:39:42.390Z,34.92
2023-05-10T22:42:09.565Z,34.26
2023-05-10T22:44:36.714Z,33.81
2023-05-10T22:47:06.522Z,33.57
2023-05-10T22:49:33.799Z,33.33
2023-05-10T22:52:01.813Z,33.12
2023-05-10T22:54:29.392Z,34.00
2023-05-10T22:56:56.545Z,34.39
2023-05-10T22:59:23.758Z,34.19
2023-05-10T23:01:51.292Z,35.52
2023-05-10T23:04:18.557Z,35.44
2023-05-10T23:06:46.561Z,35.49
2023-05-10T23:09:13.960Z,35.08
2023-05-10T23:11:41.236Z,33.77
2023-05-10T23:14:08.379Z,34.68
2023-05-10T23:16:35.888Z,33.82
2023-05-10T23:19:03.185Z,34.02
2023-05-10T23:21:32.217Z,36.20
2023-05-10T23:23:59.873Z,35.07
2023-05-10T23:26:27.011Z,35.08
2023-05-10T23:28:54.186Z,34.22
2023-05-10T23:31:21.678Z,34.65
2023-05-10T23:33:48.880Z,34.02
2023-05-10T23:36:17.107Z,33.76
2023-05-10T23:38:44.570Z,34.74
2023-05-10T23:41:12.329Z,35.36
2023-05-10T23:43:39.454Z,36.00
2023-05-10T23:46:07.125Z,36.04
2023-05-10T23:48:34.412Z,35.96
2023-05-10T23:51:01.590Z,36.28
2023-05-10T23:53:29.066Z,36.52
2023-05-10T23:55:57.767Z,34.80
2023-05-10T23:58:24.998Z,35.97
